KGVE/GVE METAR and TAF weather

Enter ICAO airport designator
Station Type Date Time Source
KGVE METAR 2019/08/24 21:55 UTC NOAA

KGVE 242155Z AUTO 03008KT 10SM CLR 25/11 A3015 RMK AO1 T02470105


Station Type Date Time Source
KGVE Decoded METAR 2019/08/24 21:55 UTC NOAA

Station name not available
Aug 24, 2019 - 05:55 PM EDT / 2019.08.24 2155 UTC
Wind: from the NNE (030 degrees) at 9 MPH (8 KT):0
Visibility: 10 mile(s):0
Sky conditions: clear
Temperature: 76.5 F (24.7 C)
Dew Point: 50.9 F (10.5 C)
Relative Humidity: 40%
Pressure (altimeter): 30.15 in. Hg (1020 hPa)
ob: KGVE 242155Z AUTO 03008KT 10SM CLR 25/11 A3015 RMK AO1 T02470105
cycle: 22

Station Type Date Time Source
KGVE TAF UTC NOAA

Error!

Example: see airport list